sensor_id;sensor_type;location;lat;lon;timestamp;pressure;altitude;pressure_sealevel;temperature;humidity
32733;BME280;11867;51.198;11.966;2023-07-31T02:25:31;100009.53;;;17.00;91.78
32733;BME280;11867;51.198;11.966;2023-07-31T02:26:57;100021.69;;;17.28;90.03
32733;BME280;11867;51.198;11.966;2023-07-31T02:28:19;100008.19;;;17.35;89.43
32733;BME280;11867;51.198;11.966;2023-07-31T02:29:42;100015.25;;;17.45;87.87
32733;BME280;11867;51.198;11.966;2023-07-31T02:31:05;100016.38;;;17.44;88.37
32733;BME280;11867;51.198;11.966;2023-07-31T02:32:28;100013.44;;;17.49;87.87
32733;BME280;11867;51.198;11.966;2023-07-31T02:33:50;100003.09;;;17.67;87.26
32733;BME280;11867;51.198;11.966;2023-07-31T02:35:13;100009.41;;;17.68;86.92
32733;BME280;11867;51.198;11.966;2023-07-31T02:36:37;100010.53;;;17.67;86.66
32733;BME280;11867;51.198;11.966;2023-07-31T02:38:00;100009.00;;;17.78;86.09
32733;BME280;11867;51.198;11.966;2023-07-31T02:39:23;100002.97;;;17.64;85.96
32733;BME280;11867;51.198;11.966;2023-07-31T02:40:47;99998.53;;;17.71;86.59
32733;BME280;11867;51.198;11.966;2023-07-31T02:42:10;99998.38;;;17.68;86.69
32733;BME280;11867;51.198;11.966;2023-07-31T02:43:33;99993.59;;;17.56;86.90
32733;BME280;11867;51.198;11.966;2023-07-31T02:44:56;99993.00;;;17.71;86.76
32733;BME280;11867;51.198;11.966;2023-07-31T02:46:18;99994.84;;;17.80;85.46
32733;BME280;11867;51.198;11.966;2023-07-31T02:47:42;99991.63;;;17.78;85.63
32733;BME280;11867;51.198;11.966;2023-07-31T02:49:04;99990.50;;;18.00;85.67
32733;BME280;11867;51.198;11.966;2023-07-31T02:50:28;99996.69;;;17.75;85.84
32733;BME280;11867;51.198;11.966;2023-07-31T02:51:51;99988.97;;;17.48;86.23
32733;BME280;11867;51.198;11.966;2023-07-31T02:53:13;99991.00;;;17.60;86.84
32733;BME280;11867;51.198;11.966;2023-07-31T02:54:36;99995.16;;;17.87;86.72
32733;BME280;11867;51.198;11.966;2023-07-31T02:56:00;99999.00;;;17.94;85.80
32733;BME280;11867;51.198;11.966;2023-07-31T02:57:23;100001.88;;;17.98;85.22
32733;BME280;11867;51.198;11.966;2023-07-31T02:58:48;100004.97;;;17.97;84.98
32733;BME280;11867;51.198;11.966;2023-07-31T03:00:12;99993.66;;;17.68;86.00
32733;BME280;11867;51.198;11.966;2023-07-31T03:01:37;100008.63;;;17.88;86.18
32733;BME280;11867;51.198;11.966;2023-07-31T03:03:03;100010.88;;;18.07;85.44
32733;BME280;11867;51.198;11.966;2023-07-31T03:04:25;99997.88;;;18.08;85.45
32733;BME280;11867;51.198;11.966;2023-07-31T03:05:49;100003.03;;;18.30;84.86
32733;BME280;11867;51.198;11.966;2023-07-31T03:07:11;100006.25;;;17.99;84.71
32733;BME280;11867;51.198;11.966;2023-07-31T03:08:34;100003.59;;;17.82;85.91
32733;BME280;11867;51.198;11.966;2023-07-31T03:09:56;99999.59;;;17.37;87.89
32733;BME280;11867;51.198;11.966;2023-07-31T03:11:21;100001.72;;;17.52;88.30
32733;BME280;11867;51.198;11.966;2023-07-31T03:12:47;99998.38;;;17.68;88.36
32733;BME280;11867;51.198;11.966;2023-07-31T03:14:11;100003.34;;;17.53;88.16
32733;BME280;11867;51.198;11.966;2023-07-31T03:15:33;100001.31;;;17.63;88.13
32733;BME280;11867;51.198;11.966;2023-07-31T03:16:56;100002.16;;;17.63;88.27
32733;BME280;11867;51.198;11.966;2023-07-31T03:18:18;100007.13;;;17.70;88.76
32733;BME280;11867;51.198;11.966;2023-07-31T03:19:41;100009.28;;;17.85;88.45
32733;BME280;11867;51.198;11.966;2023-07-31T03:21:04;100004.75;;;18.02;87.69
32733;BME280;11867;51.198;11.966;2023-07-31T03:22:27;100002.97;;;17.64;88.30
32733;BME280;11867;51.198;11.966;2023-07-31T03:23:49;100002.88;;;17.51;90.73
32733;BME280;11867;51.198;11.966;2023-07-31T03:25:12;99988.78;;;17.53;90.42
32733;BME280;11867;51.198;11.966;2023-07-31T03:26:43;99999.75;;;17.83;90.60
32733;BME280;11867;51.198;11.966;2023-07-31T03:28:07;100005.09;;;17.79;90.35
32733;BME280;11867;51.198;11.966;2023-07-31T03:29:29;99996.34;;;17.35;92.22
32733;BME280;11867;51.198;11.966;2023-07-31T03:30:52;100002.75;;;17.48;91.59
32733;BME280;11867;51.198;11.966;2023-07-31T03:32:15;99996.09;;;17.49;91.86
32733;BME280;11867;51.198;11.966;2023-07-31T03:33:38;99998.72;;;17.45;92.42
32733;BME280;11867;51.198;11.966;2023-07-31T03:35:00;100002.22;;;17.04;93.59
32733;BME280;11867;51.198;11.966;2023-07-31T03:36:23;99999.25;;;17.09;95.28
32733;BME280;11867;51.198;11.966;2023-07-31T03:37:47;99996.59;;;17.21;95.27
32733;BME280;11867;51.198;11.966;2023-07-31T03:39:11;100002.31;;;17.16;94.75
32733;BME280;11867;51.198;11.966;2023-07-31T03:40:34;99993.81;;;17.00;95.30
32733;BME280;11867;51.198;11.966;2023-07-31T03:41:57;99997.88;;;16.94;95.61
32733;BME280;11867;51.198;11.966;2023-07-31T03:43:22;99995.91;;;17.03;95.69
32733;BME280;11867;51.198;11.966;2023-07-31T03:44:47;99983.34;;;17.14;95.54
32733;BME280;11867;51.198;11.966;2023-07-31T03:46:10;99989.03;;;17.09;96.59
32733;BME280;11867;51.198;11.966;2023-07-31T03:47:32;99987.06;;;16.89;97.04
32733;BME280;11867;51.198;11.966;2023-07-31T03:48:56;99991.78;;;16.80;98.70
32733;BME280;11867;51.198;11.966;2023-07-31T03:50:20;99992.31;;;17.03;97.92
32733;BME280;11867;51.198;11.966;2023-07-31T03:51:43;99984.75;;;17.00;97.18
32733;BME280;11867;51.198;11.966;2023-07-31T03:53:06;99989.25;;;17.04;97.05
32733;BME280;11867;51.198;11.966;2023-07-31T03:54:30;99992.28;;;17.11;96.59
32733;BME280;11867;51.198;11.966;2023-07-31T03:55:52;99995.56;;;17.05;97.37
32733;BME280;11867;51.198;11.966;2023-07-31T03:57:16;99991.19;;;17.04;98.36
32733;BME280;11867;51.198;11.966;2023-07-31T03:58:38;99978.47;;;17.20;97.51
32733;BME280;11867;51.198;11.966;2023-07-31T04:00:01;99985.97;;;16.72;99.54
32733;BME280;11867;51.198;11.966;2023-07-31T04:01:24;99987.91;;;16.72;100.00
32733;BME280;11867;51.198;11.966;2023-07-31T04:02:47;99990.53;;;16.68;100.00
32733;BME280;11867;51.198;11.966;2023-07-31T04:04:09;99975.09;;;16.76;100.00
32733;BME280;11867;51.198;11.966;2023-07-31T04:05:33;99978.63;;;16.94;98.86
32733;BME280;11867;51.198;11.966;2023-07-31T04:06:55;99974.75;;;16.86;99.96
32733;BME280;11867;51.198;11.966;2023-07-31T04:08:18;99979.88;;;16.97;99.93
32733;BME280;11867;51.198;11.966;2023-07-31T04:09:40;99971.22;;;16.77;100.00
32733;BME280;11867;51.198;11.966;2023-07-31T04:11:03;99985.66;;;16.83;100.00
32733;BME280;11867;51.198;11.966;2023-07-31T04:12:36;99966.09;;;16.67;100.00
32733;BME280;11867;51.198;11.966;2023-07-31T04:13:59;99964.84;;;16.94;100.00
32733;BME280;11867;51.198;11.966;2023-07-31T04:15:21;99971.88;;;16.74;100.00
32733;BME280;11867;51.198;11.966;2023-07-31T04:16:45;99961.22;;;16.72;100.00
32733;BME280;11867;51.198;11.966;2023-07-31T04:18:07;99969.56;;;16.93;100.00
32733;BME280;11867;51.198;11.966;2023-07-31T04:19:32;99970.81;;;16.96;100.00
32733;BME280;11867;51.198;11.966;2023-07-31T04:20:55;99972.47;;;16.88;100.00
32733;BME280;11867;51.198;11.966;2023-07-31T04:22:17;99971.88;;;16.83;100.00
32733;BME280;11867;51.198;11.966;2023-07-31T04:23:40;99969.59;;;16.76;100.00
32733;BME280;11867;51.198;11.966;2023-07-31T04:25:04;99970.41;;;16.77;100.00
32733;BME280;11867;51.198;11.966;2023-07-31T04:26:27;99965.16;;;17.01;100.00
32733;BME280;11867;51.198;11.966;2023-07-31T04:27:51;99964.84;;;16.94;100.00
32733;BME280;11867;51.198;11.966;2023-07-31T04:29:14;99963.28;;;17.14;100.00
32733;BME280;11867;51.198;11.966;2023-07-31T04:30:37;99964.31;;;17.01;100.00
32733;BME280;11867;51.198;11.966;2023-07-31T04:32:00;99969.69;;;16.97;100.00
32733;BME280;11867;51.198;11.966;2023-07-31T04:33:25;99963.75;;;16.78;100.00
32733;BME280;11867;51.198;11.966;2023-07-31T04:34:49;99966.25;;;16.70;100.00
32733;BME280;11867;51.198;11.966;2023-07-31T04:36:11;99962.41;;;16.92;100.00
32733;BME280;11867;51.198;11.966;2023-07-31T04:37:35;99959.63;;;17.01;100.00
32733;BME280;11867;51.198;11.966;2023-07-31T04:38:57;99964.84;;;16.94;100.00
32733;BME280;11867;51.198;11.966;2023-07-31T04:40:20;99962.94;;;16.86;100.00
32733;BME280;11867;51.198;11.966;2023-07-31T04:41:42;99965.41;;;17.08;100.00
32733;BME280;11867;51.198;11.966;2023-07-31T04:43:10;99967.75;;;16.98;100.00
32733;BME280;11867;51.198;11.966;2023-07-31T04:44:32;99966.38;;;16.83;100.00
32733;BME280;11867;51.198;11.966;2023-07-31T04:45:55;99959.88;;;16.87;100.00
32733;BME280;11867;51.198;11.966;2023-07-31T04:47:18;99966.25;;;16.70;100.00
32733;BME280;11867;51.198;11.966;2023-07-31T04:48:40;99962.97;;;16.77;100.00
32733;BME280;11867;51.198;11.966;2023-07-31T04:50:06;99964.28;;;16.71;100.00
32733;BME280;11867;51.198;11.966;2023-07-31T04:51:30;99965.91;;;16.81;100.00
32733;BME280;11867;51.198;11.966;2023-07-31T04:52:52;99962.88;;;16.94;100.00
32733;BME280;11867;51.198;11.966;2023-07-31T04:54:15;99970.72;;;16.84;100.00
32733;BME280;11867;51.198;11.966;2023-07-31T04:55:37;99963.28;;;16.75;100.00
32733;BME280;11867;51.198;11.966;2023-07-31T04:57:00;99963.84;;;16.60;100.00
32733;BME280;11867;51.198;11.966;2023-07-31T04:58:24;99959.09;;;16.69;100.00
32733;BME280;11867;51.198;11.966;2023-07-31T04:59:47;99959.06;;;16.78;100.00
32733;BME280;11867;51.198;11.966;2023-07-31T05:01:12;99968.13;;;16.87;100.00
32733;BME280;11867;51.198;11.966;2023-07-31T05:02:35;99966.50;;;16.86;100.00
32733;BME280;11867;51.198;11.966;2023-07-31T05:03:57;99954.97;;;16.93;100.00
32733;BME280;11867;51.198;11.966;2023-07-31T05:05:20;99955.72;;;17.02;100.00
32733;BME280;11867;51.198;11.966;2023-07-31T05:06:42;99966.53;;;17.07;100.00
32733;BME280;11867;51.198;11.966;2023-07-31T05:08:06;99967.41;;;16.99;100.00
32733;BME280;11867;51.198;11.966;2023-07-31T05:09:28;99969.22;;;16.95;100.00
32733;BME280;11867;51.198;11.966;2023-07-31T05:10:51;99965.53;;;16.91;100.00
32733;BME280;11867;51.198;11.966;2023-07-31T05:12:16;99962.09;;;16.94;100.00
32733;BME280;11867;51.198;11.966;2023-07-31T05:13:40;99962.66;;;17.08;100.00
32733;BME280;11867;51.198;11.966;2023-07-31T05:15:03;99959.78;;;17.26;100.00
32733;BME280;11867;51.198;11.966;2023-07-31T05:16:26;99957.28;;;17.12;100.00
32733;BME280;11867;51.198;11.966;2023-07-31T05:17:50;99955.13;;;17.18;100.00
32733;BME280;11867;51.198;11.966;2023-07-31T05:19:13;99962.19;;;17.06;100.00
32733;BME280;11867;51.198;11.966;2023-07-31T05:20:36;99961.22;;;17.02;100.00
32733;BME280;11867;51.198;11.966;2023-07-31T05:21:59;99952.66;;;17.04;100.00
32733;BME280;11867;51.198;11.966;2023-07-31T05:23:21;99954.59;;;17.03;100.00
32733;BME280;11867;51.198;11.966;2023-07-31T05:24:44;99956.28;;;17.17;100.00
32733;BME280;11867;51.198;11.966;2023-07-31T05:26:06;99950.75;;;16.96;100.00
32733;BME280;11867;51.198;11.966;2023-07-31T05:27:32;99951.00;;;17.03;100.00
32733;BME280;11867;51.198;11.966;2023-07-31T05:28:55;99946.44;;;17.07;100.00
32733;BME280;11867;51.198;11.966;2023-07-31T05:30:19;99954.66;;;17.15;100.00
32733;BME280;11867;51.198;11.966;2023-07-31T05:31:43;99948.19;;;17.11;100.00
32733;BME280;11867;51.198;11.966;2023-07-31T05:33:10;99947.13;;;17.04;100.00
32733;BME280;11867;51.198;11.966;2023-07-31T05:34:36;99951.69;;;17.00;100.00
32733;BME280;11867;51.198;11.966;2023-07-31T05:35:58;99942.75;;;17.03;100.00
32733;BME280;11867;51.198;11.966;2023-07-31T05:37:21;99943.50;;;16.91;100.00
32733;BME280;11867;51.198;11.966;2023-07-31T05:38:46;99941.47;;;17.00;100.00
32733;BME280;11867;51.198;11.966;2023-07-31T05:40:10;99956.66;;;17.06;100.00
32733;BME280;11867;51.198;11.966;2023-07-31T05:41:32;99950.09;;;17.20;100.00
32733;BME280;11867;51.198;11.966;2023-07-31T05:42:55;99947.22;;;17.37;100.00
32733;BME280;11867;51.198;11.966;2023-07-31T05:44:21;99950.91;;;17.41;99.50
32733;BME280;11867;51.198;11.966;2023-07-31T05:45:44;99951.72;;;17.42;100.00
32733;BME280;11867;51.198;11.966;2023-07-31T05:47:06;99938.13;;;17.15;100.00
32733;BME280;11867;51.198;11.966;2023-07-31T05:48:29;99951.72;;;17.21;100.00
32733;BME280;11867;51.198;11.966;2023-07-31T05:49:52;99954.41;;;17.29;100.00
32733;BME280;11867;51.198;11.966;2023-07-31T05:51:15;99956.22;;;17.46;100.00
32733;BME280;11867;51.198;11.966;2023-07-31T05:52:38;99959.66;;;17.43;99.69
32733;BME280;11867;51.198;11.966;2023-07-31T05:54:00;99956.16;;;17.34;100.00
32733;BME280;11867;51.198;11.966;2023-07-31T05:55:23;99962.41;;;17.22;100.00
32733;BME280;11867;51.198;11.966;2023-07-31T05:56:48;99951.25;;;17.19;100.00
32733;BME280;11867;51.198;11.966;2023-07-31T05:58:11;99957.97;;;17.30;100.00
32733;BME280;11867;51.198;11.966;2023-07-31T05:59:35;99957.38;;;17.45;100.00
32733;BME280;11867;51.198;11.966;2023-07-31T06:00:58;99961.41;;;17.48;99.31
32733;BME280;11867;51.198;11.966;2023-07-31T06:02:20;99962.06;;;17.66;99.43
32733;BME280;11867;51.198;11.966;2023-07-31T06:03:43;99969.59;;;17.57;97.42
32733;BME280;11867;51.198;11.966;2023-07-31T06:05:08;99970.22;;;17.62;98.50
32733;BME280;11867;51.198;11.966;2023-07-31T06:06:32;99969.06;;;17.63;97.84
32733;BME280;11867;51.198;11.966;2023-07-31T06:07:56;99969.44;;;17.32;97.71
32733;BME280;11867;51.198;11.966;2023-07-31T06:09:20;99973.63;;;17.38;98.01
32733;BME280;11867;51.198;11.966;2023-07-31T06:10:42;99966.50;;;17.37;98.16
32733;BME280;11867;51.198;11.966;2023-07-31T06:12:05;99970.06;;;17.38;98.86
32733;BME280;11867;51.198;11.966;2023-07-31T06:13:28;99967.72;;;17.48;98.80
32733;BME280;11867;51.198;11.966;2023-07-31T06:14:52;99967.59;;;17.66;98.28
32733;BME280;11867;51.198;11.966;2023-07-31T06:16:15;99973.03;;;17.74;98.18
32733;BME280;11867;51.198;11.966;2023-07-31T06:17:39;99974.09;;;17.82;96.29
32733;BME280;11867;51.198;11.966;2023-07-31T06:19:02;99973.63;;;17.80;96.84
32733;BME280;11867;51.198;11.966;2023-07-31T06:20:24;99970.25;;;17.74;95.80
32733;BME280;11867;51.198;11.966;2023-07-31T06:21:48;99975.56;;;17.80;96.81
32733;BME280;11867;51.198;11.966;2023-07-31T06:23:10;99967.44;;;17.83;95.92
32733;BME280;11867;51.198;11.966;2023-07-31T06:24:33;99956.16;;;17.76;97.13
32733;BME280;11867;51.198;11.966;2023-07-31T06:25:55;99961.66;;;17.97;96.95
32733;BME280;11867;51.198;11.966;2023-07-31T06:27:21;99961.41;;;18.02;97.24
32733;BME280;11867;51.198;11.966;2023-07-31T06:28:43;99963.91;;;18.28;95.32
32733;BME280;11867;51.198;11.966;2023-07-31T06:30:08;99966.66;;;18.16;94.13
32733;BME280;11867;51.198;11.966;2023-07-31T06:31:30;99969.31;;;18.25;93.93
32733;BME280;11867;51.198;11.966;2023-07-31T06:32:54;99970.16;;;18.38;94.14
32733;BME280;11867;51.198;11.966;2023-07-31T06:34:17;99964.81;;;18.20;94.74
32733;BME280;11867;51.198;11.966;2023-07-31T06:35:41;99976.13;;;18.27;94.16
32733;BME280;11867;51.198;11.966;2023-07-31T06:37:05;99975.63;;;18.13;94.06
32733;BME280;11867;51.198;11.966;2023-07-31T06:38:27;99972.72;;;18.09;94.61
32733;BME280;11867;51.198;11.966;2023-07-31T06:39:50;99968.75;;;18.19;94.74
32733;BME280;11867;51.198;11.966;2023-07-31T06:41:12;99973.00;;;18.29;93.97
32733;BME280;11867;51.198;11.966;2023-07-31T06:42:36;99961.19;;;18.53;94.30
32733;BME280;11867;51.198;11.966;2023-07-31T06:43:58;99959.13;;;18.62;91.97
32733;BME280;11867;51.198;11.966;2023-07-31T06:45:22;99958.66;;;18.60;92.30
32733;BME280;11867;51.198;11.966;2023-07-31T06:46:44;99955.34;;;18.67;91.89
32733;BME280;11867;51.198;11.966;2023-07-31T06:48:07;99957.78;;;18.81;92.17
32733;BME280;11867;51.198;11.966;2023-07-31T06:49:31;99953.16;;;18.72;91.15
32733;BME280;11867;51.198;11.966;2023-07-31T06:50:55;99965.25;;;18.80;91.45
32733;BME280;11867;51.198;11.966;2023-07-31T06:52:20;99953.72;;;18.66;91.13
32733;BME280;11867;51.198;11.966;2023-07-31T06:53:43;99955.22;;;18.63;92.35
32733;BME280;11867;51.198;11.966;2023-07-31T06:55:16;99962.13;;;18.57;91.98
32733;BME280;11867;51.198;11.966;2023-07-31T06:56:40;99966.31;;;18.88;91.28
32733;BME280;11867;51.198;11.966;2023-07-31T06:58:04;99958.47;;;18.90;90.76
32733;BME280;11867;51.198;11.966;2023-07-31T06:59:26;99958.38;;;18.86;90.54
32733;BME280;11867;51.198;11.966;2023-07-31T07:00:51;99960.63;;;18.72;90.36
32733;BME280;11867;51.198;11.966;2023-07-31T07:02:13;99957.78;;;18.81;91.34
32733;BME280;11867;51.198;11.966;2023-07-31T07:03:36;99950.38;;;18.60;90.42
32733;BME280;11867;51.198;11.966;2023-07-31T07:04:58;99957.41;;;18.70;91.23
32733;BME280;11867;51.198;11.966;2023-07-31T07:06:22;99958.00;;;18.75;91.46
32733;BME280;11867;51.198;11.966;2023-07-31T07:07:44;99960.06;;;18.79;90.26
32733;BME280;11867;51.198;11.966;2023-07-31T07:09:08;99962.28;;;18.85;90.91
32733;BME280;11867;51.198;11.966;2023-07-31T07:10:31;99966.28;;;18.75;90.17
32733;BME280;11867;51.198;11.966;2023-07-31T07:11:55;99966.50;;;18.70;90.94
32733;BME280;11867;51.198;11.966;2023-07-31T07:13:18;99949.09;;;18.45;90.70
32733;BME280;11867;51.198;11.966;2023-07-31T07:14:45;99957.06;;;18.47;92.43
32733;BME280;11867;51.198;11.966;2023-07-31T07:16:10;99951.31;;;18.76;91.84
32733;BME280;11867;51.198;11.966;2023-07-31T07:17:33;99958.47;;;18.90;90.74
32733;BME280;11867;51.198;11.966;2023-07-31T07:19:01;99957.53;;;19.10;89.72
32733;BME280;11867;51.198;11.966;2023-07-31T07:20:26;99952.16;;;19.02;89.00
32733;BME280;11867;51.198;11.966;2023-07-31T07:21:49;99964.00;;;19.02;89.75
32733;BME280;11867;51.198;11.966;2023-07-31T07:23:13;99955.31;;;19.16;89.08
32733;BME280;11867;51.198;11.966;2023-07-31T07:24:36;99960.44;;;19.02;89.06
32733;BME280;11867;51.198;11.966;2023-07-31T07:25:58;99951.19;;;19.10;89.45
32733;BME280;11867;51.198;11.966;2023-07-31T07:27:21;99952.16;;;19.02;89.01
32733;BME280;11867;51.198;11.966;2023-07-31T07:28:44;99952.72;;;18.95;89.82
32733;BME280;11867;51.198;11.966;2023-07-31T07:30:10;99962.91;;;19.31;88.68
32733;BME280;11867;51.198;11.966;2023-07-31T07:31:34;99952.56;;;19.16;88.15
32733;BME280;11867;51.198;11.966;2023-07-31T07:32:58;99956.84;;;19.13;87.83
32733;BME280;11867;51.198;11.966;2023-07-31T07:34:22;99949.13;;;19.19;88.04
32733;BME280;11867;51.198;11.966;2023-07-31T07:35:45;99959.91;;;19.24;88.53
32733;BME280;11867;51.198;11.966;2023-07-31T07:37:08;99958.75;;;19.38;89.07
32733;BME280;11867;51.198;11.966;2023-07-31T07:38:31;99959.53;;;19.50;86.61
32733;BME280;11867;51.198;11.966;2023-07-31T07:39:53;99950.28;;;19.59;86.86
32733;BME280;11867;51.198;11.966;2023-07-31T07:41:16;99952.44;;;19.37;87.57
32733;BME280;11867;51.198;11.966;2023-07-31T07:42:47;99958.00;;;19.00;87.45
32733;BME280;11867;51.198;11.966;2023-07-31T07:44:11;99952.09;;;19.14;88.36
32733;BME280;11867;51.198;11.966;2023-07-31T07:45:34;99946.94;;;19.25;87.65
32733;BME280;11867;51.198;11.966;2023-07-31T07:47:01;99959.09;;;19.36;87.15
32733;BME280;11867;51.198;11.966;2023-07-31T07:48:24;99945.19;;;19.61;87.51
32733;BME280;11867;51.198;11.966;2023-07-31T07:49:47;99948.88;;;19.65;84.89
32733;BME280;11867;51.198;11.966;2023-07-31T07:51:14;99948.59;;;19.70;85.21
32733;BME280;11867;51.198;11.966;2023-07-31T07:52:37;99947.59;;;19.74;85.70
32733;BME280;11867;51.198;11.966;2023-07-31T07:53:59;99942.97;;;19.79;85.28
32733;BME280;11867;51.198;11.966;2023-07-31T07:55:22;99952.88;;;20.08;84.05
32733;BME280;11867;51.198;11.966;2023-07-31T07:56:45;99958.84;;;20.10;84.55
32733;BME280;11867;51.198;11.966;2023-07-31T07:58:08;99955.91;;;20.19;84.21
32733;BME280;11867;51.198;11.966;2023-07-31T07:59:33;99958.78;;;20.38;82.35
32733;BME280;11867;51.198;11.966;2023-07-31T08:00:56;99949.03;;;20.44;82.83
32733;BME280;11867;51.198;11.966;2023-07-31T08:02:21;99953.34;;;20.58;82.57
32733;BME280;11867;51.198;11.966;2023-07-31T08:03:43;99954.50;;;20.56;81.89
32733;BME280;11867;51.198;11.966;2023-07-31T08:05:07;99951.28;;;20.39;81.27
32733;BME280;11867;51.198;11.966;2023-07-31T08:06:32;99947.72;;;20.22;83.62
32733;BME280;11867;51.198;11.966;2023-07-31T08:07:55;99943.06;;;20.42;82.14
32733;BME280;11867;51.198;11.966;2023-07-31T08:09:18;99946.84;;;20.34;82.77
32733;BME280;11867;51.198;11.966;2023-07-31T08:10:41;99942.44;;;20.33;82.93
32733;BME280;11867;51.198;11.966;2023-07-31T08:12:03;99936.72;;;20.58;82.46
32733;BME280;11867;51.198;11.966;2023-07-31T08:13:27;99946.38;;;20.48;81.23
32733;BME280;11867;51.198;11.966;2023-07-31T08:14:49;99951.84;;;20.60;81.37
32733;BME280;11867;51.198;11.966;2023-07-31T08:16:12;99942.97;;;20.54;80.79
32733;BME280;11867;51.198;11.966;2023-07-31T08:17:36;99939.69;;;20.33;80.57
32733;BME280;11867;51.198;11.966;2023-07-31T08:19:02;99937.06;;;20.08;82.18
32733;BME280;11867;51.198;11.966;2023-07-31T08:20:26;99921.44;;;20.16;82.10
32733;BME280;11867;51.198;11.966;2023-07-31T08:21:49;99937.53;;;20.42;81.75
32733;BME280;11867;51.198;11.966;2023-07-31T08:23:17;99937.69;;;20.33;82.01
32733;BME280;11867;51.198;11.966;2023-07-31T08:24:40;99931.47;;;20.36;82.00
32733;BME280;11867;51.198;11.966;2023-07-31T08:26:02;99930.84;;;20.43;82.33
32733;BME280;11867;51.198;11.966;2023-07-31T08:27:26;99929.16;;;20.70;82.17
32733;BME280;11867;51.198;11.966;2023-07-31T08:28:48;99932.09;;;20.78;80.33
32733;BME280;11867;51.198;11.966;2023-07-31T08:30:12;99938.13;;;20.99;80.52
32733;BME280;11867;51.198;11.966;2023-07-31T08:31:34;99941.56;;;20.92;78.23
32733;BME280;11867;51.198;11.966;2023-07-31T08:32:59;99944.63;;;20.71;79.65
32733;BME280;11867;51.198;11.966;2023-07-31T08:34:21;99931.22;;;20.73;79.45
32733;BME280;11867;51.198;11.966;2023-07-31T08:35:44;99932.44;;;20.92;79.39
32733;BME280;11867;51.198;11.966;2023-07-31T08:37:06;99945.00;;;21.05;78.55
32733;BME280;11867;51.198;11.966;2023-07-31T08:38:29;99943.53;;;20.60;79.18
32733;BME280;11867;51.198;11.966;2023-07-31T08:39:52;99953.97;;;20.35;80.45
32733;BME280;11867;51.198;11.966;2023-07-31T08:41:19;99948.94;;;20.25;81.50
32733;BME280;11867;51.198;11.966;2023-07-31T08:42:45;99945.47;;;20.12;81.11
32733;BME280;11867;51.198;11.966;2023-07-31T08:44:08;99952.19;;;19.99;81.27
32733;BME280;11867;51.198;11.966;2023-07-31T08:45:32;99949.28;;;20.07;81.34
32733;BME280;11867;51.198;11.966;2023-07-31T08:46:55;99941.19;;;20.30;80.92
32733;BME280;11867;51.198;11.966;2023-07-31T08:48:20;99937.31;;;20.63;80.22
32733;BME280;11867;51.198;11.966;2023-07-31T08:49:46;99935.66;;;20.94;79.17
32733;BME280;11867;51.198;11.966;2023-07-31T08:51:09;99929.34;;;20.62;79.79
32733;BME280;11867;51.198;11.966;2023-07-31T08:52:32;99935.53;;;20.11;80.74
32733;BME280;11867;51.198;11.966;2023-07-31T08:53:55;99926.88;;;20.12;80.86
32733;BME280;11867;51.198;11.966;2023-07-31T08:55:19;99938.50;;;20.18;80.76
32733;BME280;11867;51.198;11.966;2023-07-31T08:56:45;99927.88;;;20.36;79.92
32733;BME280;11867;51.198;11.966;2023-07-31T08:58:09;99931.91;;;20.39;79.38
32733;BME280;11867;51.198;11.966;2023-07-31T08:59:34;99936.81;;;20.45;78.88
32733;BME280;11867;51.198;11.966;2023-07-31T09:00:58;99933.31;;;20.48;79.61
32733;BME280;11867;51.198;11.966;2023-07-31T09:02:22;99936.91;;;20.65;79.23
32733;BME280;11867;51.198;11.966;2023-07-31T09:03:51;99934.78;;;20.90;79.44
32733;BME280;11867;51.198;11.966;2023-07-31T09:05:15;99926.25;;;20.99;77.96
32733;BME280;11867;51.198;11.966;2023-07-31T09:06:39;99929.84;;;20.83;77.22
32733;BME280;11867;51.198;11.966;2023-07-31T09:08:05;99929.34;;;20.62;78.63
32733;BME280;11867;51.198;11.966;2023-07-31T09:09:29;99935.75;;;20.50;79.25
32733;BME280;11867;51.198;11.966;2023-07-31T09:10:52;99935.44;;;20.67;78.49
32733;BME280;11867;51.198;11.966;2023-07-31T09:12:17;99936.56;;;20.66;78.61
32733;BME280;11867;51.198;11.966;2023-07-31T09:13:40;99930.03;;;20.43;78.79
32733;BME280;11867;51.198;11.966;2023-07-31T09:17:45;99952.19;;;19.99;80.35
32733;BME280;11867;51.198;11.966;2023-07-31T09:19:10;99943.00;;;19.94;80.27
32733;BME280;11867;51.198;11.966;2023-07-31T09:20:36;99939.72;;;20.05;80.97
32733;BME280;11867;51.198;11.966;2023-07-31T09:22:00;99946.47;;;20.20;79.69
32733;BME280;11867;51.198;11.966;2023-07-31T09:23:23;99951.81;;;20.44;78.99
32733;BME280;11867;51.198;11.966;2023-07-31T09:24:48;99948.16;;;20.56;79.69
32733;BME280;11867;51.198;11.966;2023-07-31T09:26:10;99936.72;;;20.58;78.26
32733;BME280;11867;51.198;11.966;2023-07-31T09:27:45;99941.47;;;20.57;79.00
32733;BME280;11867;51.198;11.966;2023-07-31T09:29:19;99933.41;;;20.36;79.23
32733;BME280;11867;51.198;11.966;2023-07-31T09:30:47;99932.25;;;20.21;80.49
32733;BME280;11867;51.198;11.966;2023-07-31T09:32:16;99934.38;;;20.12;79.96
32733;BME280;11867;51.198;11.966;2023-07-31T09:33:54;99926.34;;;20.23;80.75
32733;BME280;11867;51.198;11.966;2023-07-31T09:35:27;99928.91;;;20.60;79.60
32733;BME280;11867;51.198;11.966;2023-07-31T09:36:51;99934.34;;;20.72;80.94
32733;BME280;11867;51.198;11.966;2023-07-31T09:38:17;99937.38;;;20.67;80.49
32733;BME280;11867;51.198;11.966;2023-07-31T09:39:47;99935.69;;;20.62;81.17
32733;BME280;11867;51.198;11.966;2023-07-31T09:41:09;99930.66;;;20.84;83.14
32733;BME280;11867;51.198;11.966;2023-07-31T09:42:34;99941.56;;;20.76;81.52